Flight Track Log - Related Links

Times and Time Zones

All times are in EDT time to prevent confusion due to time zone crossing. See the SKW7378 flight status page for this flight to view local times or setup timezone preferences in your user account.

Time Position Orientation Groundspeed Altitude Reporting Facility
EDT Latitude Longitude Course Direction KTS MPH feet Rate Location/Type
Tue 12:12:56 AM 41.0950 -111.9942 North 277 319 16,600  Level Salt Lake Center
Tue 12:13:00 AM 41.4258 -111.6823 13° North  Level FlightAware Approximate
Tue 12:13:58 AM 41.1742 -111.9708 13° North 320 368 16,900  Level Salt Lake Center
Tue 12:14:00 AM 41.5280 -111.6516 13° North  Level FlightAware Approximate
Tue 12:14:59 AM 41.2686 -111.9978 348° North 345 397 18,200  Level Salt Lake Center
Tue 12:15:00 AM 41.6280 -111.6106 17° North  Level FlightAware Approximate
Tue 12:16:00 AM 41.7280 -111.5689 17° North  Level FlightAware Approximate
Tue 12:16:00 AM 41.3675 -112.0122 354° North 355 409 19,600  Level Salt Lake Center
Tue 12:17:00 AM 41.8265 -111.5333 North  Level FlightAware Approximate
Tue 12:17:01 AM 41.4669 -112.0264 354° North 359 413 21,200  Level Salt Lake Center
Tue 12:18:00 AM 41.9299 -111.5119 North  Level FlightAware Approximate
Tue 12:18:02 AM 41.5686 -112.0411 354° North 367 422 22,300  Level Salt Lake Center
Tue 12:19:03 AM 41.6722 -112.0561 354° North 373 429 23,200 738 Climbing Salt Lake Center
Tue 12:20:04 AM 41.7803 -112.0717 354° North 389 448 23,800 738 Climbing Salt Lake Center
Tue 12:21:05 AM 41.9089 -112.0936 353° North 388 447 24,700 787 Climbing Salt Lake Center
Tue 12:22:06 AM 42.0225 -112.1081 355° North 402 463 25,400 689 Climbing Salt Lake Center
Tue 12:23:07 AM 42.1331 -112.1253 353° North 402 463 26,100 689 Climbing Salt Lake Center
Tue 12:24:08 AM 42.2450 -112.1422 354° North 404 465 26,800 689 Climbing Salt Lake Center
Tue 12:25:09 AM 42.3567 -112.1597 353° North 404 465 27,500 689 Climbing Salt Lake Center
Tue 12:26:10 AM 42.4672 -112.1756 354° North 400 460 28,200 689 Climbing Salt Lake Center
Tue 12:27:11 AM 42.5794 -112.1919 354° North 404 465 28,900 689 Climbing Salt Lake Center
Tue 12:28:12 AM 42.6900 -112.2094 353° North 400 460 29,600 537 Climbing Salt Lake Center
Tue 12:29:14 AM 42.8003 -112.2250 354° North 396 456 30,000 195 Climbing Salt Lake Center
Tue 12:30:15 AM 42.9261 -112.2456 353° North 408 470 30,000  Level Salt Lake Center
Tue 12:31:16 AM 43.0353 -112.2619 354° North 412 474 30,000  Level Salt Lake Center
Tue 12:32:17 AM 43.1472 -112.2792 354° North 420 483 30,000  Level Salt Lake Center
Tue 12:33:17 AM 43.2808 -112.3003 353° North 430 495 30,000  Level Salt Lake Center
Tue 12:34:20 AM 43.3933 -112.3172 354° North 426 490 30,000  Level Salt Lake Center
Tue 12:35:19 AM 43.5242 -112.3367 354° North 423 487 30,000  Level Salt Lake Center
Tue 12:36:20 AM 43.6364 -112.3553 353° North 422 486 30,000  Level Salt Lake Center
Tue 12:37:21 AM 43.7486 -112.3728 354° North 422 486 30,000  Level Salt Lake Center
Tue 12:38:22 AM 43.8792 -112.3939 353° North 422 486 30,000  Level Salt Lake Center
Tue 12:39:23 AM 43.9919 -112.4108 354° North 426 490 30,000  Level Salt Lake Center
Tue 12:40:24 AM 44.1039 -112.4278 354° North 422 486 30,000  Level Salt Lake Center
Tue 12:41:25 AM 44.2369 -112.4506 353° North 427 491 30,000  Level Salt Lake Center
Tue 12:42:26 AM 44.3492 -112.4692 353° North 425 489 30,000  Level Salt Lake Center
Tue 12:43:27 AM 44.4578 -112.4861 354° North 414 476 30,000  Level Salt Lake Center
Tue 12:44:28 AM 44.5858 -112.5078 353° North 414 476 30,000  Level Salt Lake Center
Tue 12:45:29 AM 44.6969 -112.5250 354° North 419 482 30,000  Level Salt Lake Center
Tue 12:46:30 AM 44.8072 -112.5433 353° North 416 479 30,000  Level Salt Lake Center
Tue 12:47:31 AM 44.9375 -112.5642 354° North 419 482 30,000  Level Salt Lake Center
Tue 12:48:32 AM 45.0483 -112.5831 353° North 418 481 30,000  Level Salt Lake Center
Tue 12:49:33 AM 45.1597 -112.6014 353° North 421 484 30,000 -984 Level Salt Lake Center
Tue 12:50:34 AM 45.2897 -112.6222 354° North 420 483 28,000 -2,557 Descending Salt Lake Center
Tue 12:51:35 AM 45.3861 -112.6381 353° North 411 473 24,800 -3,541 Descending Salt Lake Center
Tue 12:52:36 AM 45.4975 -112.6581 353° North 403 464 20,800 -3,787 Descending Salt Lake Center
Tue 12:53:37 AM 45.6094 -112.6769 353° North 404 465 17,100 -3,787 Descending Salt Lake Center
Tue 12:54:38 AM 45.7117 -112.6686 North 378 435 13,100 -3,492 Descending Salt Lake Center
Tue 12:55:39 AM 45.8281 -112.6289 13° North 365 420 10,000 -1,967 Descending Salt Lake Center
Tue 12:56:40 AM 45.8983 -112.5856 23° Northeast 317 365 9,100 -793 Descending Salt Lake Center
Tue 12:57:40 AM 45.9619 -112.5467 23° Northeast 305 351 8,400 -700 Descending Salt Lake Center
Tue 12:59:00 AM 45.9548 -112.4975 90° East  Level Estimated

Login

Don't have an account? Register now (free) for customized features, flight alerts, and more!